sensor_id;sensor_type;location;lat;lon;timestamp;temperature;humidity
65036;DHT22;51603;49.300;8.880;2022-09-17T00:02:22;10.10;99.90
65036;DHT22;51603;49.300;8.880;2022-09-17T00:04:50;10.00;99.90
65036;DHT22;51603;49.300;8.880;2022-09-17T00:07:16;10.10;99.90
65036;DHT22;51603;49.300;8.880;2022-09-17T00:09:41;10.10;99.90
65036;DHT22;51603;49.300;8.880;2022-09-17T00:12:08;10.10;99.90
65036;DHT22;51603;49.300;8.880;2022-09-17T00:14:34;10.10;99.90
65036;DHT22;51603;49.300;8.880;2022-09-17T00:16:59;10.10;99.90
65036;DHT22;51603;49.300;8.880;2022-09-17T00:19:25;10.00;99.90
65036;DHT22;51603;49.300;8.880;2022-09-17T00:21:51;10.00;99.90
65036;DHT22;51603;49.300;8.880;2022-09-17T00:24:19;10.00;99.90
65036;DHT22;51603;49.300;8.880;2022-09-17T00:26:46;10.00;99.90
65036;DHT22;51603;49.300;8.880;2022-09-17T00:29:12;10.00;99.90
65036;DHT22;51603;49.300;8.880;2022-09-17T00:31:37;10.00;99.90
65036;DHT22;51603;49.300;8.880;2022-09-17T00:34:04;10.00;99.90
65036;DHT22;51603;49.300;8.880;2022-09-17T00:36:30;10.00;99.90
65036;DHT22;51603;49.300;8.880;2022-09-17T00:38:57;10.00;99.90
65036;DHT22;51603;49.300;8.880;2022-09-17T00:41:26;9.90;99.90
65036;DHT22;51603;49.300;8.880;2022-09-17T00:43:54;9.90;99.90
65036;DHT22;51603;49.300;8.880;2022-09-17T00:46:42;9.90;99.90
65036;DHT22;51603;49.300;8.880;2022-09-17T00:49:20;9.90;99.90
65036;DHT22;51603;49.300;8.880;2022-09-17T00:52:03;9.90;99.90
65036;DHT22;51603;49.300;8.880;2022-09-17T00:54:30;9.90;99.90
65036;DHT22;51603;49.300;8.880;2022-09-17T00:56:56;9.90;99.90
65036;DHT22;51603;49.300;8.880;2022-09-17T00:59:22;9.90;99.90
65036;DHT22;51603;49.300;8.880;2022-09-17T01:01:49;9.90;99.90
65036;DHT22;51603;49.300;8.880;2022-09-17T01:04:21;9.80;99.90
65036;DHT22;51603;49.300;8.880;2022-09-17T01:14:37;9.70;99.90
65036;DHT22;51603;49.300;8.880;2022-09-17T01:20:06;9.80;99.90
65036;DHT22;51603;49.300;8.880;2022-09-17T01:23:15;9.80;99.90
65036;DHT22;51603;49.300;8.880;2022-09-17T01:29:09;9.70;99.90
65036;DHT22;51603;49.300;8.880;2022-09-17T01:31:33;9.70;99.90
65036;DHT22;51603;49.300;8.880;2022-09-17T01:45:15;9.70;99.90
65036;DHT22;51603;49.300;8.880;2022-09-17T01:47:57;9.70;99.90
65036;DHT22;51603;49.300;8.880;2022-09-17T01:50:38;9.70;99.90
65036;DHT22;51603;49.300;8.880;2022-09-17T01:53:06;9.70;99.90
65036;DHT22;51603;49.300;8.880;2022-09-17T01:55:36;9.70;99.90
65036;DHT22;51603;49.300;8.880;2022-09-17T01:58:42;9.70;99.90
65036;DHT22;51603;49.300;8.880;2022-09-17T02:01:10;9.60;99.90
65036;DHT22;51603;49.300;8.880;2022-09-17T02:03:41;9.60;99.90
65036;DHT22;51603;49.300;8.880;2022-09-17T02:06:14;9.70;99.90
65036;DHT22;51603;49.300;8.880;2022-09-17T02:11:51;9.60;99.90
65036;DHT22;51603;49.300;8.880;2022-09-17T02:14:27;9.60;99.90
65036;DHT22;51603;49.300;8.880;2022-09-17T02:17:00;9.60;99.90
65036;DHT22;51603;49.300;8.880;2022-09-17T02:19:30;9.50;99.90
65036;DHT22;51603;49.300;8.880;2022-09-17T02:24:45;9.50;99.90
65036;DHT22;51603;49.300;8.880;2022-09-17T02:29:51;9.40;99.90
65036;DHT22;51603;49.300;8.880;2022-09-17T02:32:16;9.40;99.90
65036;DHT22;51603;49.300;8.880;2022-09-17T02:34:42;9.40;99.90
65036;DHT22;51603;49.300;8.880;2022-09-17T02:37:07;9.40;99.90
65036;DHT22;51603;49.300;8.880;2022-09-17T02:39:33;9.40;99.90
65036;DHT22;51603;49.300;8.880;2022-09-17T02:42:13;9.40;99.90
65036;DHT22;51603;49.300;8.880;2022-09-17T02:56:06;9.20;99.90
65036;DHT22;51603;49.300;8.880;2022-09-17T03:01:33;9.20;99.90
65036;DHT22;51603;49.300;8.880;2022-09-17T03:04:05;9.20;99.90
65036;DHT22;51603;49.300;8.880;2022-09-17T03:06:32;9.20;99.90
65036;DHT22;51603;49.300;8.880;2022-09-17T03:08:58;9.20;99.90
65036;DHT22;51603;49.300;8.880;2022-09-17T03:11:23;9.20;99.90
65036;DHT22;51603;49.300;8.880;2022-09-17T03:13:49;9.20;99.90
65036;DHT22;51603;49.300;8.880;2022-09-17T03:16:14;9.10;99.90
65036;DHT22;51603;49.300;8.880;2022-09-17T03:18:40;9.10;99.90
65036;DHT22;51603;49.300;8.880;2022-09-17T03:21:05;9.10;99.90
65036;DHT22;51603;49.300;8.880;2022-09-17T03:23:31;9.10;99.90
65036;DHT22;51603;49.300;8.880;2022-09-17T03:25:58;9.10;99.90
65036;DHT22;51603;49.300;8.880;2022-09-17T03:28:23;9.00;99.90
65036;DHT22;51603;49.300;8.880;2022-09-17T03:30:51;9.10;99.90
65036;DHT22;51603;49.300;8.880;2022-09-17T03:33:17;9.10;99.90
65036;DHT22;51603;49.300;8.880;2022-09-17T03:35:43;9.10;99.90
65036;DHT22;51603;49.300;8.880;2022-09-17T03:38:09;9.10;99.90
65036;DHT22;51603;49.300;8.880;2022-09-17T03:40:34;9.20;99.90
65036;DHT22;51603;49.300;8.880;2022-09-17T03:43:00;9.10;99.90
65036;DHT22;51603;49.300;8.880;2022-09-17T03:45:26;9.10;99.90
65036;DHT22;51603;49.300;8.880;2022-09-17T03:47:51;9.10;99.90
65036;DHT22;51603;49.300;8.880;2022-09-17T03:50:17;9.10;99.90
65036;DHT22;51603;49.300;8.880;2022-09-17T03:52:42;9.10;99.90
65036;DHT22;51603;49.300;8.880;2022-09-17T03:55:08;9.10;99.90
65036;DHT22;51603;49.300;8.880;2022-09-17T03:57:34;9.20;99.90
65036;DHT22;51603;49.300;8.880;2022-09-17T03:59:59;9.20;99.90
65036;DHT22;51603;49.300;8.880;2022-09-17T04:02:25;9.20;99.90
65036;DHT22;51603;49.300;8.880;2022-09-17T04:04:50;9.20;99.90
65036;DHT22;51603;49.300;8.880;2022-09-17T04:07:17;9.10;99.90
65036;DHT22;51603;49.300;8.880;2022-09-17T04:09:42;9.10;99.90
65036;DHT22;51603;49.300;8.880;2022-09-17T04:12:08;9.10;99.90
65036;DHT22;51603;49.300;8.880;2022-09-17T04:14:33;9.10;99.90
65036;DHT22;51603;49.300;8.880;2022-09-17T04:16:59;9.10;99.90
65036;DHT22;51603;49.300;8.880;2022-09-17T04:19:25;9.10;99.90
65036;DHT22;51603;49.300;8.880;2022-09-17T04:21:50;9.10;99.90
65036;DHT22;51603;49.300;8.880;2022-09-17T04:24:15;9.10;99.90
65036;DHT22;51603;49.300;8.880;2022-09-17T04:26:41;9.10;99.90
65036;DHT22;51603;49.300;8.880;2022-09-17T04:29:07;9.10;99.90
65036;DHT22;51603;49.300;8.880;2022-09-17T04:31:32;9.10;99.90
65036;DHT22;51603;49.300;8.880;2022-09-17T04:33:58;9.10;99.90
65036;DHT22;51603;49.300;8.880;2022-09-17T04:36:23;9.20;99.90
65036;DHT22;51603;49.300;8.880;2022-09-17T04:38:49;9.10;99.90
65036;DHT22;51603;49.300;8.880;2022-09-17T04:41:14;9.20;99.90
65036;DHT22;51603;49.300;8.880;2022-09-17T04:43:40;9.10;99.90
65036;DHT22;51603;49.300;8.880;2022-09-17T04:46:06;9.10;99.90
65036;DHT22;51603;49.300;8.880;2022-09-17T04:48:31;9.10;99.90
65036;DHT22;51603;49.300;8.880;2022-09-17T04:50:57;9.10;99.90
65036;DHT22;51603;49.300;8.880;2022-09-17T04:53:23;9.10;99.90
65036;DHT22;51603;49.300;8.880;2022-09-17T04:55:48;9.10;99.90
65036;DHT22;51603;49.300;8.880;2022-09-17T04:58:14;9.10;99.90
65036;DHT22;51603;49.300;8.880;2022-09-17T05:00:39;9.10;99.90
65036;DHT22;51603;49.300;8.880;2022-09-17T05:03:06;9.10;99.90
65036;DHT22;51603;49.300;8.880;2022-09-17T05:05:32;9.10;99.90
65036;DHT22;51603;49.300;8.880;2022-09-17T05:07:57;9.10;99.90
65036;DHT22;51603;49.300;8.880;2022-09-17T05:10:23;9.10;99.90
65036;DHT22;51603;49.300;8.880;2022-09-17T05:12:54;9.10;99.90
65036;DHT22;51603;49.300;8.880;2022-09-17T05:15:21;9.10;99.90
65036;DHT22;51603;49.300;8.880;2022-09-17T05:17:46;9.10;99.90
65036;DHT22;51603;49.300;8.880;2022-09-17T05:20:13;9.10;99.90
65036;DHT22;51603;49.300;8.880;2022-09-17T05:22:43;9.10;99.90
65036;DHT22;51603;49.300;8.880;2022-09-17T05:25:10;9.00;99.90
65036;DHT22;51603;49.300;8.880;2022-09-17T05:27:36;9.10;99.90
65036;DHT22;51603;49.300;8.880;2022-09-17T05:30:02;9.10;99.90
65036;DHT22;51603;49.300;8.880;2022-09-17T05:32:28;9.10;99.90
65036;DHT22;51603;49.300;8.880;2022-09-17T05:34:53;9.10;99.90
65036;DHT22;51603;49.300;8.880;2022-09-17T05:37:20;9.10;99.90
65036;DHT22;51603;49.300;8.880;2022-09-17T05:39:45;9.10;99.90
65036;DHT22;51603;49.300;8.880;2022-09-17T05:42:11;9.10;99.90
65036;DHT22;51603;49.300;8.880;2022-09-17T05:44:37;9.10;99.90
65036;DHT22;51603;49.300;8.880;2022-09-17T05:47:02;9.00;99.90
65036;DHT22;51603;49.300;8.880;2022-09-17T05:49:28;9.00;99.90
65036;DHT22;51603;49.300;8.880;2022-09-17T05:51:54;9.00;99.90
65036;DHT22;51603;49.300;8.880;2022-09-17T05:54:19;9.00;99.90
65036;DHT22;51603;49.300;8.880;2022-09-17T05:56:45;9.00;99.90
65036;DHT22;51603;49.300;8.880;2022-09-17T05:59:10;8.90;99.90
65036;DHT22;51603;49.300;8.880;2022-09-17T06:01:36;8.90;99.90
65036;DHT22;51603;49.300;8.880;2022-09-17T06:04:02;8.80;99.90
65036;DHT22;51603;49.300;8.880;2022-09-17T06:06:29;8.80;99.90
65036;DHT22;51603;49.300;8.880;2022-09-17T06:08:58;8.80;99.90
65036;DHT22;51603;49.300;8.880;2022-09-17T06:11:23;8.80;99.90
65036;DHT22;51603;49.300;8.880;2022-09-17T06:13:52;8.80;99.90
65036;DHT22;51603;49.300;8.880;2022-09-17T06:16:20;8.80;99.90
65036;DHT22;51603;49.300;8.880;2022-09-17T06:18:45;8.80;99.90
65036;DHT22;51603;49.300;8.880;2022-09-17T06:21:11;8.80;99.90
65036;DHT22;51603;49.300;8.880;2022-09-17T06:23:36;8.80;99.90
65036;DHT22;51603;49.300;8.880;2022-09-17T06:26:03;8.80;99.90
65036;DHT22;51603;49.300;8.880;2022-09-17T06:28:29;8.80;99.90
65036;DHT22;51603;49.300;8.880;2022-09-17T06:30:59;8.80;99.90
65036;DHT22;51603;49.300;8.880;2022-09-17T06:33:25;8.80;99.90
65036;DHT22;51603;49.300;8.880;2022-09-17T06:35:58;8.80;99.90
65036;DHT22;51603;49.300;8.880;2022-09-17T06:38:26;8.80;99.90
65036;DHT22;51603;49.300;8.880;2022-09-17T06:40:52;8.80;99.90
65036;DHT22;51603;49.300;8.880;2022-09-17T06:43:18;8.90;99.90
65036;DHT22;51603;49.300;8.880;2022-09-17T06:45:49;8.80;99.90
65036;DHT22;51603;49.300;8.880;2022-09-17T06:48:15;8.90;99.90
65036;DHT22;51603;49.300;8.880;2022-09-17T06:50:40;8.90;99.90
65036;DHT22;51603;49.300;8.880;2022-09-17T06:53:07;8.90;99.90
65036;DHT22;51603;49.300;8.880;2022-09-17T06:55:33;9.00;99.90
65036;DHT22;51603;49.300;8.880;2022-09-17T06:57:58;9.00;99.90
65036;DHT22;51603;49.300;8.880;2022-09-17T07:00:25;9.00;99.90
65036;DHT22;51603;49.300;8.880;2022-09-17T07:02:58;9.10;99.90
65036;DHT22;51603;49.300;8.880;2022-09-17T07:05:26;9.10;99.90
65036;DHT22;51603;49.300;8.880;2022-09-17T07:07:52;9.10;99.90
65036;DHT22;51603;49.300;8.880;2022-09-17T07:10:18;9.10;99.90
65036;DHT22;51603;49.300;8.880;2022-09-17T07:12:44;9.10;99.90
65036;DHT22;51603;49.300;8.880;2022-09-17T07:15:10;9.20;99.90
65036;DHT22;51603;49.300;8.880;2022-09-17T07:17:36;9.30;99.90
65036;DHT22;51603;49.300;8.880;2022-09-17T07:20:08;9.40;99.90
65036;DHT22;51603;49.300;8.880;2022-09-17T07:22:34;9.40;99.90
65036;DHT22;51603;49.300;8.880;2022-09-17T07:24:59;9.50;99.90
65036;DHT22;51603;49.300;8.880;2022-09-17T07:27:29;9.50;99.90
65036;DHT22;51603;49.300;8.880;2022-09-17T07:29:55;9.50;99.90
65036;DHT22;51603;49.300;8.880;2022-09-17T07:32:21;9.60;99.90
65036;DHT22;51603;49.300;8.880;2022-09-17T07:34:46;9.50;99.90
65036;DHT22;51603;49.300;8.880;2022-09-17T07:37:13;9.60;99.90
65036;DHT22;51603;49.300;8.880;2022-09-17T07:39:39;9.60;99.90
65036;DHT22;51603;49.300;8.880;2022-09-17T07:42:05;9.70;99.90
65036;DHT22;51603;49.300;8.880;2022-09-17T07:44:30;9.70;99.90
65036;DHT22;51603;49.300;8.880;2022-09-17T07:46:56;9.80;99.90
65036;DHT22;51603;49.300;8.880;2022-09-17T07:49:21;9.90;99.90
65036;DHT22;51603;49.300;8.880;2022-09-17T07:51:47;10.00;99.90
65036;DHT22;51603;49.300;8.880;2022-09-17T07:54:12;10.10;99.90
65036;DHT22;51603;49.300;8.880;2022-09-17T07:56:38;10.20;99.90
65036;DHT22;51603;49.300;8.880;2022-09-17T07:59:04;10.30;99.90
65036;DHT22;51603;49.300;8.880;2022-09-17T08:01:31;10.30;99.90
65036;DHT22;51603;49.300;8.880;2022-09-17T08:03:58;10.40;99.90
65036;DHT22;51603;49.300;8.880;2022-09-17T08:06:26;10.50;99.90
65036;DHT22;51603;49.300;8.880;2022-09-17T08:08:53;10.40;99.90
65036;DHT22;51603;49.300;8.880;2022-09-17T08:11:24;10.50;99.90
65036;DHT22;51603;49.300;8.880;2022-09-17T08:13:51;10.50;99.90
65036;DHT22;51603;49.300;8.880;2022-09-17T08:16:17;10.70;99.90
65036;DHT22;51603;49.300;8.880;2022-09-17T08:18:43;10.80;99.90
65036;DHT22;51603;49.300;8.880;2022-09-17T08:21:11;10.90;99.90
65036;DHT22;51603;49.300;8.880;2022-09-17T08:23:39;10.90;99.90
65036;DHT22;51603;49.300;8.880;2022-09-17T08:26:06;11.00;99.90
65036;DHT22;51603;49.300;8.880;2022-09-17T08:28:34;10.90;99.90
65036;DHT22;51603;49.300;8.880;2022-09-17T08:31:04;10.80;99.90
65036;DHT22;51603;49.300;8.880;2022-09-17T08:33:32;10.70;99.90
65036;DHT22;51603;49.300;8.880;2022-09-17T08:35:58;10.70;99.90
65036;DHT22;51603;49.300;8.880;2022-09-17T08:38:27;10.70;99.90
65036;DHT22;51603;49.300;8.880;2022-09-17T08:43:44;10.80;99.90
65036;DHT22;51603;49.300;8.880;2022-09-17T08:46:12;10.90;99.90
65036;DHT22;51603;49.300;8.880;2022-09-17T08:48:49;10.90;99.90
65036;DHT22;51603;49.300;8.880;2022-09-17T08:54:16;10.90;99.90
65036;DHT22;51603;49.300;8.880;2022-09-17T08:56:49;11.00;99.90
65036;DHT22;51603;49.300;8.880;2022-09-17T08:59:44;11.00;99.90
65036;DHT22;51603;49.300;8.880;2022-09-17T09:05:41;11.20;99.90
65036;DHT22;51603;49.300;8.880;2022-09-17T09:08:17;11.50;99.90
65036;DHT22;51603;49.300;8.880;2022-09-17T09:10:57;11.70;99.90
65036;DHT22;51603;49.300;8.880;2022-09-17T09:13:28;11.80;99.90
65036;DHT22;51603;49.300;8.880;2022-09-17T09:15:58;11.80;99.90
65036;DHT22;51603;49.300;8.880;2022-09-17T09:18:29;11.90;99.90
65036;DHT22;51603;49.300;8.880;2022-09-17T09:24:23;11.80;99.90
65036;DHT22;51603;49.300;8.880;2022-09-17T09:32:07;11.60;99.90
65036;DHT22;51603;49.300;8.880;2022-09-17T09:34:36;11.60;99.90
65036;DHT22;51603;49.300;8.880;2022-09-17T09:37:29;11.60;99.90
65036;DHT22;51603;49.300;8.880;2022-09-17T09:40:21;11.60;99.90
65036;DHT22;51603;49.300;8.880;2022-09-17T09:42:47;11.60;99.90
65036;DHT22;51603;49.300;8.880;2022-09-17T09:45:17;11.50;99.90
65036;DHT22;51603;49.300;8.880;2022-09-17T09:48:01;11.60;99.90
65036;DHT22;51603;49.300;8.880;2022-09-17T09:50:46;11.60;99.90
65036;DHT22;51603;49.300;8.880;2022-09-17T09:53:41;11.60;99.90
65036;DHT22;51603;49.300;8.880;2022-09-17T09:57:14;11.60;99.90
65036;DHT22;51603;49.300;8.880;2022-09-17T09:59:21;11.60;99.90
65036;DHT22;51603;49.300;8.880;2022-09-17T10:01:47;11.70;99.90
65036;DHT22;51603;49.300;8.880;2022-09-17T10:04:22;11.80;99.90
65036;DHT22;51603;49.300;8.880;2022-09-17T10:06:51;11.90;99.90
65036;DHT22;51603;49.300;8.880;2022-09-17T10:09:18;11.90;99.90
65036;DHT22;51603;49.300;8.880;2022-09-17T10:12:15;11.80;99.90
65036;DHT22;51603;49.300;8.880;2022-09-17T10:14:43;11.60;99.90
65036;DHT22;51603;49.300;8.880;2022-09-17T10:17:23;11.30;99.90
65036;DHT22;51603;49.300;8.880;2022-09-17T10:22:31;10.60;99.90
65036;DHT22;51603;49.300;8.880;2022-09-17T10:24:59;10.60;99.90
65036;DHT22;51603;49.300;8.880;2022-09-17T10:27:26;10.60;99.90
65036;DHT22;51603;49.300;8.880;2022-09-17T10:30:15;10.90;99.90
65036;DHT22;51603;49.300;8.880;2022-09-17T10:32:42;11.30;99.90
65036;DHT22;51603;49.300;8.880;2022-09-17T10:37:48;12.00;99.90
65036;DHT22;51603;49.300;8.880;2022-09-17T10:42:44;13.00;99.90
65036;DHT22;51603;49.300;8.880;2022-09-17T10:45:27;13.20;99.90
65036;DHT22;51603;49.300;8.880;2022-09-17T10:47:54;13.50;99.90
65036;DHT22;51603;49.300;8.880;2022-09-17T10:50:29;13.40;99.90
65036;DHT22;51603;49.300;8.880;2022-09-17T10:53:01;13.30;99.90
65036;DHT22;51603;49.300;8.880;2022-09-17T11:03:44;13.30;99.90
65036;DHT22;51603;49.300;8.880;2022-09-17T11:09:22;12.90;99.90
65036;DHT22;51603;49.300;8.880;2022-09-17T11:11:59;12.80;99.90
65036;DHT22;51603;49.300;8.880;2022-09-17T11:14:49;12.90;99.90
65036;DHT22;51603;49.300;8.880;2022-09-17T11:29:41;14.40;99.90
65036;DHT22;51603;49.300;8.880;2022-09-17T11:35:08;14.60;99.90
65036;DHT22;51603;49.300;8.880;2022-09-17T11:37:39;14.60;99.90
65036;DHT22;51603;49.300;8.880;2022-09-17T11:40:15;14.50;99.90
65036;DHT22;51603;49.300;8.880;2022-09-17T11:42:51;14.30;99.90
65036;DHT22;51603;49.300;8.880;2022-09-17T11:45:21;14.10;99.90
65036;DHT22;51603;49.300;8.880;2022-09-17T11:50:44;13.80;99.90
65036;DHT22;51603;49.300;8.880;2022-09-17T11:53:31;13.80;99.90
65036;DHT22;51603;49.300;8.880;2022-09-17T11:56:14;13.60;99.90
65036;DHT22;51603;49.300;8.880;2022-09-17T11:58:55;13.40;99.90
65036;DHT22;51603;49.300;8.880;2022-09-17T12:01:42;13.10;99.90
65036;DHT22;51603;49.300;8.880;2022-09-17T12:04:31;12.90;99.90
65036;DHT22;51603;49.300;8.880;2022-09-17T12:07:54;12.80;99.90
65036;DHT22;51603;49.300;8.880;2022-09-17T12:10:40;12.80;99.90
65036;DHT22;51603;49.300;8.880;2022-09-17T12:13:35;13.00;99.90
65036;DHT22;51603;49.300;8.880;2022-09-17T12:21:47;13.40;99.90
65036;DHT22;51603;49.300;8.880;2022-09-17T12:24:22;13.60;99.90
65036;DHT22;51603;49.300;8.880;2022-09-17T12:43:26;14.10;99.90
65036;DHT22;51603;49.300;8.880;2022-09-17T12:46:36;14.30;99.90
65036;DHT22;51603;49.300;8.880;2022-09-17T12:49:24;14.20;99.90
65036;DHT22;51603;49.300;8.880;2022-09-17T12:51:59;14.20;99.90
65036;DHT22;51603;49.300;8.880;2022-09-17T12:54:34;14.20;99.90
65036;DHT22;51603;49.300;8.880;2022-09-17T12:57:23;14.20;99.90
65036;DHT22;51603;49.300;8.880;2022-09-17T12:59:56;14.50;99.90
65036;DHT22;51603;49.300;8.880;2022-09-17T13:02:43;14.70;99.90
65036;DHT22;51603;49.300;8.880;2022-09-17T13:05:37;14.80;99.90
65036;DHT22;51603;49.300;8.880;2022-09-17T13:14:26;14.80;99.90
65036;DHT22;51603;49.300;8.880;2022-09-17T13:17:01;14.90;99.90
65036;DHT22;51603;49.300;8.880;2022-09-17T13:19:55;15.10;99.40
65036;DHT22;51603;49.300;8.880;2022-09-17T13:22:28;15.30;98.10
65036;DHT22;51603;49.300;8.880;2022-09-17T13:25:05;15.40;96.70
65036;DHT22;51603;49.300;8.880;2022-09-17T13:27:32;15.70;97.40
65036;DHT22;51603;49.300;8.880;2022-09-17T13:30:01;15.80;97.20
65036;DHT22;51603;49.300;8.880;2022-09-17T13:37:42;15.30;97.10
65036;DHT22;51603;49.300;8.880;2022-09-17T13:40:26;15.00;97.50
65036;DHT22;51603;49.300;8.880;2022-09-17T13:45:31;14.80;98.90
65036;DHT22;51603;49.300;8.880;2022-09-17T13:48:03;14.90;98.20
65036;DHT22;51603;49.300;8.880;2022-09-17T13:50:34;14.80;98.90
65036;DHT22;51603;49.300;8.880;2022-09-17T13:55:57;14.70;99.90
65036;DHT22;51603;49.300;8.880;2022-09-17T13:58:30;14.70;99.90
65036;DHT22;51603;49.300;8.880;2022-09-17T14:01:01;14.60;99.90
65036;DHT22;51603;49.300;8.880;2022-09-17T14:34:58;15.30;99.90
65036;DHT22;51603;49.300;8.880;2022-09-17T14:37:24;15.50;99.90
65036;DHT22;51603;49.300;8.880;2022-09-17T14:39:51;15.50;99.90
65036;DHT22;51603;49.300;8.880;2022-09-17T14:42:25;15.20;99.90
65036;DHT22;51603;49.300;8.880;2022-09-17T14:45:06;14.90;99.90
65036;DHT22;51603;49.300;8.880;2022-09-17T14:47:37;14.90;99.90
65036;DHT22;51603;49.300;8.880;2022-09-17T14:52:48;15.40;99.90
65036;DHT22;51603;49.300;8.880;2022-09-17T14:57:46;15.30;99.90
65036;DHT22;51603;49.300;8.880;2022-09-17T15:00:22;15.20;98.90
65036;DHT22;51603;49.300;8.880;2022-09-17T15:02:53;15.30;99.00
65036;DHT22;51603;49.300;8.880;2022-09-17T15:05:29;15.50;98.30
65036;DHT22;51603;49.300;8.880;2022-09-17T15:08:05;15.60;98.10
65036;DHT22;51603;49.300;8.880;2022-09-17T15:10:33;15.50;97.80
65036;DHT22;51603;49.300;8.880;2022-09-17T15:13:00;15.30;98.20
65036;DHT22;51603;49.300;8.880;2022-09-17T15:15:26;15.20;98.10
65036;DHT22;51603;49.300;8.880;2022-09-17T15:17:53;15.10;98.30
65036;DHT22;51603;49.300;8.880;2022-09-17T15:20:26;15.20;97.90
65036;DHT22;51603;49.300;8.880;2022-09-17T15:23:00;15.30;98.10
65036;DHT22;51603;49.300;8.880;2022-09-17T15:25:28;15.40;97.90
65036;DHT22;51603;49.300;8.880;2022-09-17T15:27:56;15.40;97.70
65036;DHT22;51603;49.300;8.880;2022-09-17T15:30:24;15.10;97.50
65036;DHT22;51603;49.300;8.880;2022-09-17T15:32:55;14.90;97.60
65036;DHT22;51603;49.300;8.880;2022-09-17T15:35:31;14.90;97.90
65036;DHT22;51603;49.300;8.880;2022-09-17T15:38:02;14.70;98.00
65036;DHT22;51603;49.300;8.880;2022-09-17T15:40:37;14.70;98.30
65036;DHT22;51603;49.300;8.880;2022-09-17T15:43:25;14.60;98.80
65036;DHT22;51603;49.300;8.880;2022-09-17T15:45:52;14.50;98.90
65036;DHT22;51603;49.300;8.880;2022-09-17T15:50:54;14.50;99.40
65036;DHT22;51603;49.300;8.880;2022-09-17T15:53:32;14.50;99.40
65036;DHT22;51603;49.300;8.880;2022-09-17T15:56:07;14.50;99.20
65036;DHT22;51603;49.300;8.880;2022-09-17T16:08:44;14.20;98.80
65036;DHT22;51603;49.300;8.880;2022-09-17T16:11:17;14.10;98.80
65036;DHT22;51603;49.300;8.880;2022-09-17T16:13:47;14.10;98.80
65036;DHT22;51603;49.300;8.880;2022-09-17T16:16:24;14.00;98.70
65036;DHT22;51603;49.300;8.880;2022-09-17T16:18:50;14.00;98.90
65036;DHT22;51603;49.300;8.880;2022-09-17T16:21:18;14.00;99.00
65036;DHT22;51603;49.300;8.880;2022-09-17T16:23:43;13.90;98.80
65036;DHT22;51603;49.300;8.880;2022-09-17T16:26:13;13.90;99.10
65036;DHT22;51603;49.300;8.880;2022-09-17T16:28:39;13.90;99.10
65036;DHT22;51603;49.300;8.880;2022-09-17T16:31:05;13.90;99.40
65036;DHT22;51603;49.300;8.880;2022-09-17T16:33:31;13.90;99.00
65036;DHT22;51603;49.300;8.880;2022-09-17T16:35:57;13.90;98.60
65036;DHT22;51603;49.300;8.880;2022-09-17T16:38:23;13.90;98.00
65036;DHT22;51603;49.300;8.880;2022-09-17T16:40:49;13.90;98.30
65036;DHT22;51603;49.300;8.880;2022-09-17T16:43:16;13.80;98.10
65036;DHT22;51603;49.300;8.880;2022-09-17T16:45:42;13.80;98.40
65036;DHT22;51603;49.300;8.880;2022-09-17T16:48:09;13.80;98.70
65036;DHT22;51603;49.300;8.880;2022-09-17T16:50:37;13.70;99.00
65036;DHT22;51603;49.300;8.880;2022-09-17T16:53:04;13.60;99.30
65036;DHT22;51603;49.300;8.880;2022-09-17T16:55:29;13.60;99.80
65036;DHT22;51603;49.300;8.880;2022-09-17T16:57:56;13.50;99.90
65036;DHT22;51603;49.300;8.880;2022-09-17T17:00:23;13.40;99.90
65036;DHT22;51603;49.300;8.880;2022-09-17T17:02:55;13.40;99.90
65036;DHT22;51603;49.300;8.880;2022-09-17T17:05:22;13.30;99.90
65036;DHT22;51603;49.300;8.880;2022-09-17T17:07:48;13.30;99.90
65036;DHT22;51603;49.300;8.880;2022-09-17T17:10:14;13.30;99.90
65036;DHT22;51603;49.300;8.880;2022-09-17T17:12:40;13.30;99.90
65036;DHT22;51603;49.300;8.880;2022-09-17T17:15:07;13.20;99.90
65036;DHT22;51603;49.300;8.880;2022-09-17T17:17:33;13.10;99.90
65036;DHT22;51603;49.300;8.880;2022-09-17T17:20:03;13.00;99.90
65036;DHT22;51603;49.300;8.880;2022-09-17T17:22:32;12.80;99.90
65036;DHT22;51603;49.300;8.880;2022-09-17T17:24:58;12.60;99.90
65036;DHT22;51603;49.300;8.880;2022-09-17T17:27:23;12.30;99.90
65036;DHT22;51603;49.300;8.880;2022-09-17T17:29:49;12.10;99.90
65036;DHT22;51603;49.300;8.880;2022-09-17T17:32:14;12.00;99.90
65036;DHT22;51603;49.300;8.880;2022-09-17T17:34:40;11.70;99.90
65036;DHT22;51603;49.300;8.880;2022-09-17T17:37:06;11.60;99.90
65036;DHT22;51603;49.300;8.880;2022-09-17T17:39:31;11.50;99.90
65036;DHT22;51603;49.300;8.880;2022-09-17T17:41:57;11.50;99.90
65036;DHT22;51603;49.300;8.880;2022-09-17T17:44:23;11.30;99.90
65036;DHT22;51603;49.300;8.880;2022-09-17T17:46:48;11.30;99.90
65036;DHT22;51603;49.300;8.880;2022-09-17T17:49:14;11.20;99.90
65036;DHT22;51603;49.300;8.880;2022-09-17T17:51:39;11.00;99.90
65036;DHT22;51603;49.300;8.880;2022-09-17T17:54:05;10.90;99.90
65036;DHT22;51603;49.300;8.880;2022-09-17T17:56:31;10.90;99.90
65036;DHT22;51603;49.300;8.880;2022-09-17T17:58:57;10.90;99.90
65036;DHT22;51603;49.300;8.880;2022-09-17T18:01:27;10.80;99.90
65036;DHT22;51603;49.300;8.880;2022-09-17T18:03:57;10.80;99.90
65036;DHT22;51603;49.300;8.880;2022-09-17T18:06:24;10.80;99.90
65036;DHT22;51603;49.300;8.880;2022-09-17T18:08:50;10.70;99.90
65036;DHT22;51603;49.300;8.880;2022-09-17T18:11:15;10.70;99.90
65036;DHT22;51603;49.300;8.880;2022-09-17T18:13:41;10.50;99.90
65036;DHT22;51603;49.300;8.880;2022-09-17T18:16:10;10.50;99.90
65036;DHT22;51603;49.300;8.880;2022-09-17T18:18:38;10.40;99.90
65036;DHT22;51603;49.300;8.880;2022-09-17T18:21:05;10.40;99.90
65036;DHT22;51603;49.300;8.880;2022-09-17T18:23:36;10.30;99.90
65036;DHT22;51603;49.300;8.880;2022-09-17T18:26:04;10.20;99.90
65036;DHT22;51603;49.300;8.880;2022-09-17T18:28:33;10.20;99.90
65036;DHT22;51603;49.300;8.880;2022-09-17T18:31:16;10.20;99.90
65036;DHT22;51603;49.300;8.880;2022-09-17T18:33:42;10.20;99.90
65036;DHT22;51603;49.300;8.880;2022-09-17T18:36:08;10.10;99.90
65036;DHT22;51603;49.300;8.880;2022-09-17T18:38:34;10.10;99.90
65036;DHT22;51603;49.300;8.880;2022-09-17T18:41:09;10.10;99.90
65036;DHT22;51603;49.300;8.880;2022-09-17T18:43:35;10.10;99.90
65036;DHT22;51603;49.300;8.880;2022-09-17T18:46:01;10.10;99.90
65036;DHT22;51603;49.300;8.880;2022-09-17T18:48:28;10.10;99.90
65036;DHT22;51603;49.300;8.880;2022-09-17T18:51:06;10.10;99.90
65036;DHT22;51603;49.300;8.880;2022-09-17T18:53:35;10.20;99.90
65036;DHT22;51603;49.300;8.880;2022-09-17T18:56:05;10.20;99.90
65036;DHT22;51603;49.300;8.880;2022-09-17T18:58:32;10.20;99.90
65036;DHT22;51603;49.300;8.880;2022-09-17T19:00:57;10.20;99.90
65036;DHT22;51603;49.300;8.880;2022-09-17T19:03:23;10.30;99.90
65036;DHT22;51603;49.300;8.880;2022-09-17T19:05:48;10.30;99.90
65036;DHT22;51603;49.300;8.880;2022-09-17T19:08:14;10.30;99.90